Time;durP1;ratioP1;P1;durP2;ratioP2;P2;SDS_P1;SDS_P2;PMS_P1;PMS_P2;Temp;Humidity;BMP_temperature;BMP_pressure;BME280_temperature;BME280_humidity;BME280_pressure;Samples;Min_cycle;Max_cycle;Signal;HPM_P1;HPM_P2
2021/06/25 00:02:02;;;;;;;305.98;131.88;;;;;;;17.15;96.10;98087.88;5080785;28;20235;-66
2021/06/25 00:04:28;;;;;;;302.63;128.65;;;;;;;17.32;97.17;98092.00;5081934;28;20272;-66
2021/06/25 00:06:55;;;;;;;294.75;117.03;;;;;;;17.94;95.29;98092.28;5080787;28;20236;-66
2021/06/25 00:09:21;;;;;;;287.30;118.95;;;;;;;17.63;93.98;98079.41;5081336;28;20217;-66
2021/06/25 00:11:48;;;;;;;302.15;120.25;;;;;;;17.95;92.29;98078.97;5080603;28;20241;-66
2021/06/25 00:14:20;;;;;;;297.33;122.00;;;;;;;17.97;91.00;98082.34;5081578;28;20248;-66
2021/06/25 00:16:46;;;;;;;285.90;115.88;;;;;;;17.54;92.36;98091.41;5080963;28;20244;-66
2021/06/25 00:19:14;;;;;;;293.38;120.45;;;;;;;17.55;94.07;98081.69;5081435;28;20213;-66
2021/06/25 00:21:41;;;;;;;307.02;125.65;;;;;;;17.59;91.90;98082.31;5080203;28;20258;-66
2021/06/25 00:24:07;;;;;;;318.85;129.20;;;;;;;17.59;90.80;98077.06;5078315;28;20244;-66
2021/06/25 00:26:34;;;;;;;298.88;119.18;;;;;;;17.16;94.27;98070.25;5076123;28;20225;-66
2021/06/25 00:29:01;;;;;;;296.17;120.28;;;;;;;17.13;94.78;98078.41;5079796;28;20212;-66
2021/06/25 00:31:27;;;;;;;310.65;123.43;;;;;;;17.33;93.36;98071.75;5078775;28;20271;-66
2021/06/25 00:33:54;;;;;;;298.52;117.50;;;;;;;17.31;93.01;98074.53;5079297;28;20233;-66
2021/06/25 00:36:21;;;;;;;300.95;117.78;;;;;;;17.27;93.62;98065.09;5079513;28;20244;-66
2021/06/25 00:38:48;;;;;;;308.48;122.55;;;;;;;17.19;94.65;98063.97;5079766;28;20219;-66
2021/06/25 00:41:14;;;;;;;296.70;122.35;;;;;;;17.14;96.01;98065.09;5079584;28;20237;-66
2021/06/25 00:43:41;;;;;;;305.08;118.32;;;;;;;16.98;96.66;98061.78;5079032;28;20744;-66
2021/06/25 00:46:08;;;;;;;291.45;116.38;;;;;;;16.96;97.68;98058.41;5079428;28;20993;-66
2021/06/25 00:48:34;;;;;;;301.45;117.95;;;;;;;17.14;98.02;98059.81;5079934;28;20219;-66
2021/06/25 00:51:00;;;;;;;288.38;116.65;;;;;;;17.12;96.74;98058.25;5078532;28;20236;-67
2021/06/25 00:53:29;;;;;;;315.35;123.22;;;;;;;16.97;97.97;98057.47;5077982;28;20262;-67
2021/06/25 00:55:56;;;;;;;287.70;117.20;;;;;;;16.95;97.24;98056.72;5079473;28;20293;-66
2021/06/25 00:58:22;;;;;;;311.80;119.05;;;;;;;17.32;96.26;98059.53;5079780;28;20212;-66
2021/06/25 01:00:50;;;;;;;305.90;118.82;;;;;;;17.64;94.52;98059.13;5079250;28;20243;-66
2021/06/25 01:03:17;;;;;;;305.35;121.82;;;;;;;17.41;93.43;98056.28;5078595;28;20731;-66
2021/06/25 01:05:43;;;;;;;293.35;117.72;;;;;;;17.89;94.38;98053.88;5079299;28;20224;-66
2021/06/25 01:08:11;;;;;;;304.45;118.32;;;;;;;17.34;93.96;98055.00;5078013;28;20211;-66
2021/06/25 01:10:41;;;;;;;300.77;117.75;;;;;;;17.19;96.17;98061.31;5078860;28;20232;-67
2021/06/25 01:13:08;;;;;;;300.55;117.22;;;;;;;17.38;97.06;98061.75;5079045;28;20239;-67
2021/06/25 01:15:35;;;;;;;286.80;115.18;;;;;;;17.79;95.38;98062.50;5079281;28;20235;-67
2021/06/25 01:18:01;;;;;;;298.65;117.93;;;;;;;17.91;93.07;98054.59;5079704;28;20217;-66
2021/06/25 01:20:30;;;;;;;318.63;126.50;;;;;;;17.57;93.23;98049.94;5077017;28;20240;-66
2021/06/25 01:22:59;;;;;;;378.85;137.60;;;;;;;17.53;95.71;98047.53;5076447;28;20258;-67
2021/06/25 01:25:27;;;;;;;356.63;155.95;;;;;;;17.91;95.71;98046.69;5075613;28;20221;-73
2021/06/25 01:27:55;;;;;;;324.92;136.88;;;;;;;18.26;93.74;98040.69;5078925;28;20216;-73
2021/06/25 01:30:24;;;;;;;324.73;134.45;;;;;;;18.76;89.94;98037.13;5077730;28;20217;-73
2021/06/25 01:32:51;;;;;;;310.60;133.65;;;;;;;17.86;90.77;98040.03;5076619;28;20706;-73
2021/06/25 01:35:19;;;;;;;337.13;131.55;;;;;;;17.47;94.24;98042.66;5076505;28;20212;-73
2021/06/25 01:37:45;;;;;;;301.67;120.05;;;;;;;17.19;96.66;98042.88;5079521;28;20842;-73
2021/06/25 01:40:16;;;;;;;299.73;132.80;;;;;;;17.21;96.15;98046.25;5077956;28;20217;-73
2021/06/25 01:42:43;;;;;;;311.67;127.80;;;;;;;17.31;95.87;98039.38;5080243;28;20218;-73
2021/06/25 01:45:12;;;;;;;292.48;123.93;;;;;;;17.74;93.98;98033.81;5083378;28;20212;-73
2021/06/25 01:47:40;;;;;;;283.23;125.63;;;;;;;17.88;93.38;98039.00;5083065;28;21020;-73
2021/06/25 01:50:09;;;;;;;293.25;125.25;;;;;;;18.15;93.29;98040.63;5082661;28;20247;-73
2021/06/25 01:52:35;;;;;;;299.15;126.57;;;;;;;18.11;91.82;98039.16;5082563;28;20237;-74
2021/06/25 01:55:02;;;;;;;311.98;129.68;;;;;;;18.01;92.26;98035.47;5083430;28;20208;-73
2021/06/25 01:57:32;;;;;;;300.55;130.65;;;;;;;17.76;94.21;98031.91;5082623;28;20623;-73
2021/06/25 01:59:59;;;;;;;293.95;127.95;;;;;;;17.44;95.11;98037.63;5083308;28;20208;-73
2021/06/25 02:02:25;;;;;;;307.95;133.80;;;;;;;17.50;94.92;98031.09;5082070;28;20761;-73
2021/06/25 02:04:52;;;;;;;300.33;125.75;;;;;;;18.11;94.44;98032.06;5082686;28;20228;-73
2021/06/25 02:07:19;;;;;;;303.98;130.98;;;;;;;17.93;92.28;98025.47;5082237;28;20267;-73
2021/06/25 02:09:45;;;;;;;300.23;127.22;;;;;;;17.86;94.19;98030.31;5083069;28;20224;-73
2021/06/25 02:12:12;;;;;;;271.30;125.35;;;;;;;17.63;93.50;98031.09;5081952;28;20233;-73
2021/06/25 02:14:39;;;;;;;291.70;129.32;;;;;;;18.07;91.90;98029.78;5083048;28;20243;-73
2021/06/25 02:17:06;;;;;;;302.80;129.00;;;;;;;17.89;92.79;98035.41;5082261;28;20944;-73
2021/06/25 02:19:32;;;;;;;275.35;125.88;;;;;;;17.76;94.37;98037.19;5083184;28;20208;-73
2021/06/25 02:21:59;;;;;;;317.20;133.85;;;;;;;18.12;93.15;98035.56;5082229;28;20241;-73
2021/06/25 02:24:26;;;;;;;290.02;128.18;;;;;;;18.13;91.85;98031.97;5082562;28;20228;-73
2021/06/25 02:26:52;;;;;;;311.75;132.82;;;;;;;18.20;91.70;98029.75;5081735;28;20987;-73
2021/06/25 02:29:19;;;;;;;328.77;134.52;;;;;;;18.07;93.55;98035.91;5080003;28;20217;-73
2021/06/25 02:31:46;;;;;;;306.30;133.18;;;;;;;17.76;94.31;98024.00;5081981;28;20244;-73
2021/06/25 02:34:13;;;;;;;295.75;118.45;;;;;;;17.59;94.47;98025.16;5082436;28;20237;-72
2021/06/25 02:36:40;;;;;;;289.65;130.45;;;;;;;18.23;92.63;98027.75;5081814;28;20248;-73
2021/06/25 02:39:06;;;;;;;298.50;129.60;;;;;;;17.72;93.87;98030.44;5082648;28;20302;-73
2021/06/25 02:41:33;;;;;;;329.60;133.60;;;;;;;18.03;92.52;98023.88;5081795;28;20271;-73
2021/06/25 02:43:59;;;;;;;307.65;126.45;;;;;;;17.90;93.65;98017.75;5082432;28;20233;-73
2021/06/25 02:46:26;;;;;;;312.60;131.32;;;;;;;17.88;93.12;98024.94;5081434;28;21178;-73
2021/06/25 02:48:54;;;;;;;300.92;126.10;;;;;;;17.61;92.02;98022.41;5082423;28;20220;-73
2021/06/25 02:51:20;;;;;;;314.63;127.40;;;;;;;18.49;94.53;98025.84;5081076;28;20256;-74
2021/06/25 02:53:47;;;;;;;270.52;119.13;;;;;;;18.62;91.01;98030.25;5081946;28;20244;-73
2021/06/25 02:56:13;;;;;;;288.67;129.00;;;;;;;17.63;92.48;98021.38;5081353;28;20779;-74
2021/06/25 02:58:40;;;;;;;305.80;122.78;;;;;;;18.23;92.16;98018.94;5082287;28;20220;-74
2021/06/25 03:01:06;;;;;;;298.40;126.88;;;;;;;18.40;91.98;98015.94;5081258;28;20245;-74
2021/06/25 03:03:33;;;;;;;311.83;130.63;;;;;;;18.15;90.78;98016.88;5081796;28;20240;-73
2021/06/25 03:06:00;;;;;;;323.02;131.73;;;;;;;17.78;91.80;98018.63;5081306;28;20232;-74
2021/06/25 03:08:27;;;;;;;307.67;132.30;;;;;;;17.52;93.57;98019.47;5081873;28;20761;-75
2021/06/25 03:10:54;;;;;;;285.20;127.82;;;;;;;17.74;92.90;98023.25;5081137;28;20237;-73
2021/06/25 03:13:21;;;;;;;306.27;129.48;;;;;;;17.90;94.00;98017.75;5081352;28;20236;-74
2021/06/25 03:15:48;;;;;;;308.83;129.52;;;;;;;17.63;95.40;98007.34;5081730;28;20228;-74
2021/06/25 03:18:16;;;;;;;293.58;123.22;;;;;;;18.35;93.71;98012.78;5081572;28;20209;-73
2021/06/25 03:20:43;;;;;;;281.42;129.07;;;;;;;18.56;91.37;98014.81;5081271;28;20248;-73
2021/06/25 03:23:11;;;;;;;300.35;128.50;;;;;;;18.44;91.60;98016.56;5081650;28;20235;-73
2021/06/25 03:25:38;;;;;;;276.23;127.60;;;;;;;18.43;91.45;98014.88;5081279;28;20243;-73
2021/06/25 03:28:05;;;;;;;301.42;126.72;;;;;;;18.66;92.46;98014.03;5079249;28;20212;-74
2021/06/25 03:30:32;;;;;;;313.33;144.32;;;;;;;18.56;89.97;98010.38;5080185;28;20232;-73
2021/06/25 03:32:59;;;;;;;310.92;133.00;;;;;;;18.58;89.96;98011.13;5080545;28;20736;-73
2021/06/25 03:35:25;;;;;;;306.08;126.75;;;;;;;17.96;91.54;98011.19;5080375;28;20213;-73
2021/06/25 03:37:52;;;;;;;307.20;128.88;;;;;;;18.18;92.26;98003.47;5081172;28;20224;-74
2021/06/25 03:40:20;;;;;;;295.63;123.18;;;;;;;18.38;90.83;98009.06;5079943;28;20213;-73
2021/06/25 03:42:46;;;;;;;302.58;126.00;;;;;;;18.03;91.94;98009.81;5081258;28;20216;-74
2021/06/25 03:45:14;;;;;;;307.23;126.18;;;;;;;18.08;91.70;98011.16;5080661;28;20228;-74
2021/06/25 03:47:41;;;;;;;303.83;122.82;;;;;;;18.11;93.33;98004.84;5081011;28;20209;-75
2021/06/25 03:50:09;;;;;;;297.67;121.20;;;;;;;18.25;91.92;98012.63;5081033;28;20212;-74
2021/06/25 03:52:36;;;;;;;276.73;118.22;;;;;;;18.38;92.10;98011.72;5079949;28;20235;-76
2021/06/25 03:55:03;;;;;;;300.73;127.13;;;;;;;18.12;91.45;98001.25;5081189;28;20212;-74
2021/06/25 03:57:31;;;;;;;292.88;124.18;;;;;;;18.09;92.69;98006.75;5080127;28;20236;-73
2021/06/25 03:59:57;;;;;;;307.23;124.15;;;;;;;18.06;93.12;97999.06;5080653;28;20584;-74
2021/06/25 04:02:24;;;;;;;310.00;128.13;;;;;;;18.18;92.31;98008.75;5079643;28;20233;-75
2021/06/25 04:04:50;;;;;;;292.90;123.80;;;;;;;18.06;92.92;98014.88;5081050;28;20241;-75
2021/06/25 04:07:17;;;;;;;299.40;123.97;;;;;;;18.01;93.90;98014.38;5078807;28;20244;-75
2021/06/25 04:09:43;;;;;;;307.52;127.20;;;;;;;17.93;93.93;98020.19;5080498;28;20248;-75
2021/06/25 04:12:10;;;;;;;289.63;123.22;;;;;;;17.86;93.94;98011.84;5079601;28;20243;-75
2021/06/25 04:14:38;;;;;;;280.83;122.35;;;;;;;17.91;93.20;98015.00;5080791;28;20236;-73
2021/06/25 04:17:05;;;;;;;295.33;125.90;;;;;;;18.01;94.31;98020.50;5079762;28;20236;-74
2021/06/25 04:19:31;;;;;;;307.60;124.55;;;;;;;17.87;94.66;98018.00;5080468;28;20211;-73
2021/06/25 04:21:58;;;;;;;298.70;126.07;;;;;;;17.96;93.53;98027.03;5079366;28;20248;-74
2021/06/25 04:24:24;;;;;;;299.65;124.05;;;;;;;17.78;94.79;98022.09;5080443;28;20243;-74
2021/06/25 04:26:51;;;;;;;303.45;123.07;;;;;;;17.77;95.96;98023.03;5078971;28;20307;-74
2021/06/25 04:29:17;;;;;;;324.58;131.00;;;;;;;17.74;97.12;98023.25;5078071;28;20204;-74
2021/06/25 04:31:50;;;;;;;307.58;124.57;;;;;;;17.48;98.61;98017.16;5079259;28;20225;-74
2021/06/25 04:34:17;;;;;;;306.25;121.32;;;;;;;17.78;96.65;98026.53;5080352;28;20235;-73
2021/06/25 04:36:43;;;;;;;302.30;125.75;;;;;;;17.68;96.55;98023.66;5079857;28;20227;-73
2021/06/25 04:39:10;;;;;;;306.15;127.05;;;;;;;17.74;96.05;98028.53;5080403;28;20221;-73
2021/06/25 04:41:36;;;;;;;335.02;135.40;;;;;;;17.76;96.35;98024.00;5078416;28;20229;-73
2021/06/25 04:44:04;;;;;;;300.90;125.85;;;;;;;17.94;97.04;98032.44;5080425;28;20236;-74
2021/06/25 04:46:31;;;;;;;321.52;133.73;;;;;;;17.60;96.56;98037.38;5079646;28;20748;-73
2021/06/25 04:48:59;;;;;;;317.30;131.13;;;;;;;17.47;96.92;98042.66;5079665;28;20322;-73
2021/06/25 04:51:25;;;;;;;314.63;128.93;;;;;;;17.75;95.66;98042.56;5079063;28;20701;-73
2021/06/25 04:53:52;;;;;;;312.58;129.98;;;;;;;17.58;97.05;98041.94;5077775;28;20244;-73
2021/06/25 04:56:19;;;;;;;311.52;130.55;;;;;;;17.61;98.22;98038.22;5076601;28;20241;-73
2021/06/25 04:58:46;;;;;;;285.48;121.70;;;;;;;17.73;96.76;98042.66;5080276;28;20234;-73
2021/06/25 05:01:12;;;;;;;296.50;123.22;;;;;;;17.54;98.76;98038.66;5079566;28;20232;-73
2021/06/25 05:03:39;;;;;;;268.10;115.85;;;;;;;17.67;97.43;98037.81;5062957;28;20232;-73
2021/06/25 05:06:07;;;;;;;273.30;117.95;;;;;;;17.79;97.27;98044.03;5082047;28;20232;-73
2021/06/25 05:08:33;;;;;;;266.73;115.65;;;;;;;17.42;96.93;98033.38;5082391;28;20213;-74
2021/06/25 05:11:00;;;;;;;269.27;116.43;;;;;;;17.58;97.36;98035.81;5082620;28;20229;-74
2021/06/25 05:13:26;;;;;;;287.58;117.00;;;;;;;17.71;97.82;98039.28;5081826;28;20240;-74
2021/06/25 05:15:53;;;;;;;273.58;119.07;;;;;;;17.70;98.49;98037.63;5081556;28;20236;-75
2021/06/25 05:18:21;;;;;;;275.55;119.88;;;;;;;17.65;98.75;98039.72;5081058;28;20213;-74
2021/06/25 05:20:48;;;;;;;271.58;112.70;;;;;;;17.82;96.90;98031.47;5080997;28;20611;-74
2021/06/25 05:23:17;;;;;;;270.80;116.50;;;;;;;17.76;95.24;98037.19;5081248;28;20224;-74
2021/06/25 05:25:44;;;;;;;267.08;113.63;;;;;;;17.83;95.94;98032.31;5081355;28;20725;-74
2021/06/25 05:28:13;;;;;;;262.88;111.40;;;;;;;17.78;96.21;98027.38;5081754;28;20312;-74
2021/06/25 05:30:39;;;;;;;265.42;115.05;;;;;;;17.53;98.09;98037.00;5082812;28;20236;-74
2021/06/25 05:33:07;;;;;;;270.25;115.82;;;;;;;17.79;95.12;98039.63;5081932;28;20236;-76
2021/06/25 05:35:35;;;;;;;274.80;118.78;;;;;;;17.82;93.87;98036.75;5082664;28;20240;-74
2021/06/25 05:38:04;;;;;;;264.75;113.57;;;;;;;17.85;94.27;98041.84;5082411;28;20215;-74
2021/06/25 05:40:32;;;;;;;263.05;114.45;;;;;;;17.99;94.87;98032.09;5082013;28;20239;-74
2021/06/25 05:42:59;;;;;;;284.80;117.70;;;;;;;17.98;96.22;98035.72;5081705;28;20224;-74
2021/06/25 05:45:26;;;;;;;259.25;112.38;;;;;;;18.06;93.99;98041.28;5082023;28;20300;-74
2021/06/25 05:47:52;;;;;;;270.70;117.55;;;;;;;17.91;92.42;98049.31;5081896;28;20209;-74
2021/06/25 05:50:19;;;;;;;273.52;119.88;;;;;;;18.10;92.87;98045.38;5082363;28;20252;-74
2021/06/25 05:52:46;;;;;;;264.10;115.95;;;;;;;17.98;94.66;98041.00;5082260;28;20779;-74
2021/06/25 05:55:13;;;;;;;264.00;113.53;;;;;;;17.95;95.48;98046.47;5081980;28;20236;-73
2021/06/25 05:57:42;;;;;;;271.33;119.15;;;;;;;18.04;95.56;98036.09;5081850;28;20216;-74
2021/06/25 06:00:10;;;;;;;317.23;128.20;;;;;;;17.92;96.09;98048.38;5081700;28;20236;-73
2021/06/25 06:02:38;;;;;;;273.50;118.13;;;;;;;17.85;98.62;98052.41;5081458;28;20209;-74
2021/06/25 06:05:05;;;;;;;260.67;115.68;;;;;;;17.86;95.69;98043.50;5083041;28;20227;-74
2021/06/25 06:07:32;;;;;;;258.88;110.25;;;;;;;17.97;93.96;98053.31;5082249;28;20232;-74
2021/06/25 06:09:58;;;;;;;259.52;112.97;;;;;;;17.80;95.04;98059.75;5082360;28;20301;-74
2021/06/25 06:12:25;;;;;;;278.45;114.65;;;;;;;17.86;95.04;98064.63;5081105;28;20239;-74
2021/06/25 06:14:53;;;;;;;270.38;112.80;;;;;;;17.74;95.85;98062.84;5081489;28;20740;-74
2021/06/25 06:17:21;;;;;;;267.20;111.38;;;;;;;17.63;96.18;98065.38;5082133;28;20236;-74
2021/06/25 06:19:52;;;;;;;280.00;115.05;;;;;;;17.60;95.29;98063.75;5082038;28;20217;-74
2021/06/25 06:33:21;;;;;;;278.20;113.55;;;;;;;17.67;95.51;98069.47;5084830;28;20612;-74
2021/06/25 06:35:49;;;;;;;266.42;111.75;;;;;;;17.54;95.95;98074.75;5085660;28;20266;-73
2021/06/25 06:38:16;;;;;;;255.48;112.45;;;;;;;17.80;96.46;98069.47;5085519;28;20228;-73
2021/06/25 06:40:42;;;;;;;274.35;117.70;;;;;;;17.76;98.69;98081.19;5085488;28;20232;-74
2021/06/25 06:43:09;;;;;;;257.08;112.00;;;;;;;17.65;96.55;98074.84;5085568;28;20812;-74
2021/06/25 06:45:38;;;;;;;259.70;111.15;;;;;;;17.79;93.43;98073.91;5084912;28;20238;-74
2021/06/25 06:48:05;;;;;;;253.85;111.22;;;;;;;17.93;96.66;98075.59;5086091;28;20221;-75
2021/06/25 06:50:32;;;;;;;260.95;111.88;;;;;;;18.27;91.79;98067.97;5085110;28;20522;-75
2021/06/25 06:52:58;;;;;;;261.48;112.65;;;;;;;18.20;94.79;98066.72;5085070;28;20908;-75
2021/06/25 06:55:25;;;;;;;254.00;110.70;;;;;;;18.12;99.10;98075.16;5084528;28;20240;-76
2021/06/25 06:57:52;;;;;;;260.95;114.75;;;;;;;18.11;92.52;98071.66;5085736;28;20631;-74
2021/06/25 07:00:20;;;;;;;271.80;117.35;;;;;;;18.26;93.76;98072.38;5083975;28;20213;-73
2021/06/25 07:02:47;;;;;;;277.27;125.20;;;;;;;18.19;90.83;98065.84;5085310;28;20216;-74
2021/06/25 07:05:15;;;;;;;255.13;114.97;;;;;;;18.24;93.08;98063.72;5084111;28;20216;-73
2021/06/25 07:07:42;;;;;;;258.83;119.40;;;;;;;18.32;92.04;98062.34;5085038;28;20220;-74
2021/06/25 07:10:10;;;;;;;271.25;121.55;;;;;;;18.08;94.58;98068.41;5084540;28;20217;-73
2021/06/25 07:12:39;;;;;;;254.75;113.57;;;;;;;17.98;91.79;98072.66;5084605;28;20304;-74
2021/06/25 07:15:07;;;;;;;268.35;126.53;;;;;;;18.08;89.04;98073.69;5084993;28;20233;-74
2021/06/25 07:17:33;;;;;;;267.70;118.65;;;;;;;18.24;89.93;98078.72;5083165;28;20607;-74
2021/06/25 07:20:01;;;;;;;268.90;121.22;;;;;;;18.15;88.99;98080.22;5084853;28;20209;-74
2021/06/25 07:22:28;;;;;;;267.33;122.15;;;;;;;18.14;88.88;98083.84;5083692;28;20713;-74
2021/06/25 07:24:54;;;;;;;275.42;123.78;;;;;;;18.20;91.04;98086.03;5083658;28;20345;-74
2021/06/25 07:27:21;;;;;;;275.90;123.15;;;;;;;17.98;92.13;98083.22;5084082;28;20241;-74
2021/06/25 07:29:47;;;;;;;254.70;112.70;;;;;;;18.08;93.09;98089.53;5084724;28;20840;-74
2021/06/25 07:32:14;;;;;;;260.58;115.60;;;;;;;17.99;92.64;98092.81;5084116;28;20233;-74
2021/06/25 07:34:41;;;;;;;275.58;121.85;;;;;;;17.90;94.57;98087.22;5084519;28;20256;-74
2021/06/25 07:37:09;;;;;;;259.80;113.40;;;;;;;18.09;92.30;98091.22;5084501;28;20240;-74
2021/06/25 07:39:35;;;;;;;266.17;114.45;;;;;;;18.03;91.86;98083.72;5084374;28;20244;-74
2021/06/25 07:42:02;;;;;;;270.70;117.10;;;;;;;18.21;92.11;98090.34;5083437;28;20240;-74
2021/06/25 07:44:28;;;;;;;268.30;116.90;;;;;;;18.24;94.24;98079.56;5084206;28;20233;-74
2021/06/25 07:46:55;;;;;;;267.75;113.50;;;;;;;18.07;95.20;98082.56;5083297;28;20385;-74
2021/06/25 07:49:21;;;;;;;263.88;114.07;;;;;;;18.25;93.46;98085.69;5084373;28;20216;-74
2021/06/25 07:51:48;;;;;;;276.50;117.70;;;;;;;18.22;94.99;98078.84;5083588;28;20256;-74
2021/06/25 07:54:16;;;;;;;272.33;126.72;;;;;;;18.33;92.67;98077.25;5084288;28;20294;-74
2021/06/25 07:56:42;;;;;;;265.17;122.68;;;;;;;18.41;95.03;98080.16;5083463;28;20240;-74
2021/06/25 07:59:09;;;;;;;272.00;126.15;;;;;;;18.48;94.37;98089.34;5084185;28;20216;-74
2021/06/25 08:01:36;;;;;;;275.75;125.43;;;;;;;18.42;92.04;98074.78;5082627;28;20245;-74
2021/06/25 08:04:02;;;;;;;265.67;115.10;;;;;;;18.41;91.72;98080.16;5084058;28;20651;-74
2021/06/25 08:06:29;;;;;;;264.30;115.68;;;;;;;18.65;87.87;98083.66;5083438;28;20250;-74
2021/06/25 08:08:56;;;;;;;271.05;115.57;;;;;;;18.69;86.70;98071.06;5084159;28;20231;-74
2021/06/25 08:11:24;;;;;;;270.60;112.45;;;;;;;18.48;85.56;98069.03;5083074;28;20327;-74
2021/06/25 08:13:50;;;;;;;269.65;115.53;;;;;;;18.45;84.90;98063.13;5083623;28;20243;-74
2021/06/25 08:16:17;;;;;;;266.98;112.47;;;;;;;18.56;87.92;98063.19;5083082;28;20236;-74
2021/06/25 08:18:43;;;;;;;268.15;116.03;;;;;;;18.60;89.18;98069.97;5083807;28;20223;-74
2021/06/25 08:21:10;;;;;;;264.15;111.85;;;;;;;18.67;85.94;98076.50;5082607;28;20914;-74
2021/06/25 08:23:37;;;;;;;261.42;110.35;;;;;;;18.64;85.47;98071.41;5083424;28;20247;-74
2021/06/25 08:26:03;;;;;;;244.18;108.85;;;;;;;18.53;87.37;98074.00;5083497;28;20244;-74
2021/06/25 08:28:31;;;;;;;259.63;110.82;;;;;;;18.64;84.72;98074.06;5084039;28;20235;-74
2021/06/25 08:30:58;;;;;;;264.63;113.03;;;;;;;18.66;89.00;98079.25;5082755;28;20233;-74
2021/06/25 08:33:24;;;;;;;276.60;116.63;;;;;;;18.62;87.43;98077.78;5083000;28;20240;-74
2021/06/25 08:35:51;;;;;;;256.23;110.45;;;;;;;18.78;86.94;98069.56;5082633;28;20259;-74
2021/06/25 08:38:17;;;;;;;262.45;111.38;;;;;;;18.74;86.09;98076.03;5083651;28;20219;-74
2021/06/25 08:40:44;;;;;;;267.40;111.50;;;;;;;19.02;87.16;98081.00;5082129;28;20228;-74
2021/06/25 08:43:10;;;;;;;268.75;126.63;;;;;;;18.95;89.67;98073.63;5082993;28;20629;-74
2021/06/25 08:45:38;;;;;;;261.60;123.03;;;;;;;19.04;88.37;98076.44;5082680;28;20232;-74
2021/06/25 08:48:07;;;;;;;254.70;121.28;;;;;;;18.88;85.69;98079.38;5083452;28;20213;-74
2021/06/25 08:50:39;;;;;;;261.58;119.45;;;;;;;18.97;89.60;98077.84;5082777;28;20330;-73
2021/06/25 08:53:05;;;;;;;257.95;120.22;;;;;;;18.89;89.26;98077.56;5082232;28;20240;-74
2021/06/25 08:55:32;;;;;;;267.58;121.32;;;;;;;18.95;89.00;98071.84;5082833;28;20251;-75
2021/06/25 08:57:59;;;;;;;271.15;124.38;;;;;;;18.94;84.46;98072.78;5083078;28;20209;-74
2021/06/25 09:00:25;;;;;;;265.63;125.97;;;;;;;19.06;88.41;98061.31;5081954;28;20238;-74
2021/06/25 09:02:53;;;;;;;273.85;121.68;;;;;;;19.10;88.35;98066.34;5082802;28;20214;-74
2021/06/25 09:05:28;;;;;;;272.35;126.97;;;;;;;19.22;86.81;98066.28;5082574;28;20217;-73
2021/06/25 09:07:56;;;;;;;263.08;123.45;;;;;;;19.11;86.45;98063.59;5082614;28;20329;-74
2021/06/25 09:10:31;;;;;;;273.67;124.13;;;;;;;19.15;81.08;98066.84;5082443;28;20307;-73
2021/06/25 09:13:02;;;;;;;263.95;124.22;;;;;;;19.00;81.07;98072.31;5082201;28;20208;-74
2021/06/25 09:15:30;;;;;;;266.65;131.88;;;;;;;19.03;82.85;98072.09;5082176;28;20630;-74
2021/06/25 09:17:59;;;;;;;262.58;124.03;;;;;;;19.07;83.62;98065.63;5082707;28;20307;-74
2021/06/25 09:20:33;;;;;;;267.52;126.47;;;;;;;19.38;82.01;98059.84;5082175;28;20348;-74
2021/06/25 09:23:00;;;;;;;261.67;120.43;;;;;;;19.45;80.30;98072.47;5082152;28;20232;-74
2021/06/25 09:25:27;;;;;;;275.80;125.45;;;;;;;19.67;79.72;98069.97;5082065;28;20231;-74
2021/06/25 09:27:56;;;;;;;263.08;114.50;;;;;;;19.60;86.32;98069.63;5082520;28;21113;-74
2021/06/25 09:30:23;;;;;;;260.40;116.75;;;;;;;19.30;82.07;98062.22;5082040;28;20269;-74
2021/06/25 09:32:50;;;;;;;262.58;120.40;;;;;;;19.49;80.24;98069.59;5082059;28;20228;-74
2021/06/25 09:35:19;;;;;;;263.15;117.68;;;;;;;19.57;81.55;98077.78;5081393;28;20800;-73
2021/06/25 09:37:48;;;;;;;248.48;111.65;;;;;;;19.49;78.75;98066.97;5082320;28;20217;-74
2021/06/25 09:40:16;;;;;;;258.20;122.25;;;;;;;19.64;76.63;98068.41;5082388;28;20220;-74
2021/06/25 09:42:44;;;;;;;263.92;117.47;;;;;;;19.59;79.61;98067.91;5081519;28;20921;-74
2021/06/25 09:45:14;;;;;;;264.35;119.30;;;;;;;19.65;79.96;98057.72;5082139;28;20304;-74
2021/06/25 09:47:41;;;;;;;252.60;118.22;;;;;;;19.80;80.52;98061.00;5082116;28;20864;-75
2021/06/25 09:50:12;;;;;;;268.98;123.38;;;;;;;19.76;77.09;98054.28;5082010;28;20594;-73
2021/06/25 09:52:54;;;;;;;262.00;134.82;;;;;;;20.28;78.13;98053.78;5081787;28;20213;-74
2021/06/25 09:55:22;;;;;;;278.48;129.48;;;;;;;20.32;78.14;98052.56;5082160;28;20220;-75
2021/06/25 09:58:12;;;;;;;254.80;124.70;;;;;;;20.29;76.24;98058.09;5081322;28;20217;-74
2021/06/25 10:03:43;;;;;;;266.42;125.22;;;;;;;20.30;72.19;98052.69;5082894;28;20274;-74
2021/06/25 10:06:12;;;;;;;252.90;124.00;;;;;;;20.44;74.32;98054.22;5085755;28;20232;-74
2021/06/25 10:08:40;;;;;;;252.25;133.80;;;;;;;20.70;73.68;98046.00;5086688;28;20213;-74
2021/06/25 10:11:08;;;;;;;282.08;144.82;;;;;;;20.81;71.14;98045.97;5085139;28;20239;-74
2021/06/25 10:13:36;;;;;;;269.17;139.65;;;;;;;20.68;74.89;98045.28;5085776;28;20239;-74
2021/06/25 10:16:03;;;;;;;270.30;142.43;;;;;;;20.66;73.38;98039.25;5085408;28;20733;-74
2021/06/25 10:18:36;;;;;;;270.13;138.35;;;;;;;20.74;68.96;98039.47;5085651;28;20267;-74
2021/06/25 10:21:03;;;;;;;264.20;135.38;;;;;;;21.13;69.72;98034.47;5085671;28;20237;-74
2021/06/25 10:23:33;;;;;;;271.63;140.90;;;;;;;21.15;71.02;98033.38;5085733;28;21021;-74
2021/06/25 10:26:01;;;;;;;270.65;141.50;;;;;;;21.10;69.90;98032.06;5085111;28;20241;-74
2021/06/25 10:28:28;;;;;;;272.77;140.95;;;;;;;21.37;72.57;98032.41;5085302;28;20756;-74
2021/06/25 10:30:55;;;;;;;274.38;148.98;;;;;;;21.16;71.34;98027.13;5085564;28;20232;-74
2021/06/25 10:33:21;;;;;;;280.73;144.10;;;;;;;21.16;69.72;98027.13;5085350;28;20243;-74
2021/06/25 10:35:50;;;;;;;273.17;148.68;;;;;;;21.36;68.76;98029.91;5085247;28;20236;-75
2021/06/25 10:38:18;;;;;;;267.67;144.05;;;;;;;21.33;68.73;98030.97;5085635;28;20213;-75
2021/06/25 10:40:55;;;;;;;271.95;148.30;;;;;;;21.06;69.76;98030.66;5085246;28;20838;-76
2021/06/25 10:43:44;;;;;;;267.58;146.40;;;;;;;20.79;72.15;98048.75;5085166;28;20721;-74
2021/06/25 10:46:30;;;;;;;273.30;142.20;;;;;;;20.03;72.59;98050.41;5085014;28;20824;-74
2021/06/25 10:48:58;;;;;;;276.35;144.07;;;;;;;19.69;73.96;98050.38;5085083;28;20399;-74
2021/06/25 10:51:25;;;;;;;269.70;138.30;;;;;;;19.26;76.53;98061.59;5084526;28;20240;-75
2021/06/25 10:54:13;;;;;;;257.27;134.10;;;;;;;19.16;79.38;98060.63;5085344;28;20323;-74
2021/06/25 10:56:41;;;;;;;265.48;128.65;;;;;;;19.12;80.70;98059.19;5084931;28;20294;-74
2021/06/25 10:59:20;;;;;;;279.70;127.00;;;;;;;18.99;82.35;98057.44;5084847;28;20216;-74
2021/06/25 11:01:48;;;;;;;299.55;130.07;;;;;;;18.96;85.57;98059.47;5083336;28;20232;-74
2021/06/25 11:04:32;;;;;;;277.58;122.43;;;;;;;19.05;85.41;98061.44;5084232;28;20287;-74
2021/06/25 11:07:02;;;;;;;278.45;125.15;;;;;;;18.93;87.15;98060.56;5083879;28;20436;-74
2021/06/25 11:09:59;;;;;;;262.70;123.28;;;;;;;18.82;88.97;98069.28;5084833;28;20209;-73
2021/06/25 11:12:34;;;;;;;275.98;124.40;;;;;;;19.07;90.95;98062.97;5083774;28;20271;-74
2021/06/25 11:15:30;;;;;;;264.00;118.93;;;;;;;19.13;88.16;98060.84;5083905;28;20242;-74
2021/06/25 11:17:57;;;;;;;254.25;117.18;;;;;;;19.28;89.78;98062.34;5076162;28;20664;-74
2021/06/25 11:20:26;;;;;;;263.67;123.35;;;;;;;19.90;85.89;98055.00;5084613;28;20236;-74